Dixon, South Dakota
Current Conditions -  °F | °C
As of 1:53 PM on Friday 31 Oct 2014 (Local Time) from KICR Reporting Station
Clear Clear  
Wind Chill: 35°   Ceiling: Unl
Heat Index: 42°   Visibility: 10mi
Dew Point: 14°   Wind: 15mph
Humidity: 32%   Direction: 150°SSE
Pressure: 30.44"   Gusts: NA
Location:  43.2419°N, 99.4287°W
Report Text: KICR 311853Z AUTO 15013KT 10SM CLR 06/M10 A3044 RMK AO2 SLP328 T00561100
Loading
Personal Weather Stations






























Interactive Weather Map
Tropical Storm Tracking
New forecast layout! Learn more

10-Day Weather Forecast

Advertisements
Track Severe Weather on mobile